Overview Statistics Trail Chart Weather Telemetry Raw packets
 

This is the latest recevied weather packets stored in our database for station/object KG5VSR. If no packets are shown the sender has not sent any weather packets the latest 10 day(s).

<< 10 11 12 13 14 15 16 >>
Time Temp. Humidity Pressure Rain* Wind** Luminosity Snow
1788149235 31.67° C 53% 1014.7 hPa 0 mm - 0 W/m² -
1788147434 31.67° C 52% 1014.5 hPa 0 mm - 0 W/m² -
1788145630 31.67° C 52% 1014.2 hPa 0 mm - 0 W/m² -
1788143828 32.22° C 50% 1013.9 hPa 0 mm - 0 W/m² -
1788142025 32.78° C 49% 1013.7 hPa 0 mm - 0 W/m² -
1788140224 33.33° C 46% 1013.2 hPa 0 mm - 0 W/m² -
1788138422 34.44° C 44% 1012.9 hPa 0 mm - 0 W/m² -
1788136623 35° C 43% 1013 hPa 0 mm - 10 W/m² -
1788134823 36.11° C 43% 1013.1 hPa 0 mm - 27 W/m² -
1788133021 36.67° C 41% 1013.1 hPa 0 mm - 42 W/m² -
1788131222 37.22° C 40% 1013.2 hPa 0 mm - 167 W/m² -
1788129421 36.67° C 39% 1013.2 hPa 0 mm - 70 W/m² -
1788127617 38.89° C 36% 1013.4 hPa 0 mm - 447 W/m² -
1788125816 37.78° C 36% 1013.5 hPa 0 mm - 465 W/m² -
1788124015 37.78° C 38% 1013.8 hPa 0 mm - 154 W/m² -
1788122213 38.89° C 37% 1014.1 hPa 0 mm - 707 W/m² -
1788120411 38.89° C 39% 1014.5 hPa 0 mm - 727 W/m² -
1788118610 37.78° C 40% 1015 hPa 0 mm - 167 W/m² -
1788116810 37.78° C 41% 1015.4 hPa 0 mm - 668 W/m² -
1788115010 37.22° C 41% 1015.9 hPa 0 mm - 718 W/m² -
1788113209 37.22° C 44% 1016.2 hPa 0 mm - 747 W/m² -
1788111407 36.67° C 46% 1016.5 hPa 0 mm - 730 W/m² -
1788109603 36.67° C 48% 1017.3 hPa 0 mm - 773 W/m² -
1788107799 34.44° C 54% 1017.5 hPa 0 mm - 823 W/m² -
1788105999 33.33° C 57% 1017.4 hPa 0 mm - 738 W/m² -

* Rain latest hour (hover to see other rain measurements)
** Current wind speed in m/s (hover to see current wind gust speed)